Time;durP1;ratioP1;P1;durP2;ratioP2;P2;SDS_P1;SDS_P2;PMS_P1;PMS_P2;Temp;Humidity;BMP_temperature;BMP_pressure;BME280_temperature;BME280_humidity;BME280_pressure;Samples;Min_cycle;Max_cycle;Signal;HPM_P1;HPM_P2
2023/08/25 00:01:53;;;;;;;11.60;8.10;;;;;;;17.82;73.93;97797.92;106853;1265;22737;-78
2023/08/25 00:04:21;;;;;;;14.50;8.30;;;;;;;17.71;74.55;97796.45;106956;1274;22615;-79
2023/08/25 00:06:49;;;;;;;14.40;7.90;;;;;;;17.54;75.92;97791.71;106921;1263;24342;-78
2023/08/25 00:09:17;;;;;;;9.30;8.00;;;;;;;17.37;76.20;97781.88;106948;1264;22550;-77
2023/08/25 00:11:45;;;;;;;11.90;8.20;;;;;;;17.21;76.45;97773.81;106962;1266;24217;-78
2023/08/25 00:14:13;;;;;;;11.10;8.20;;;;;;;17.09;76.51;97767.41;106868;1265;24413;-78
2023/08/25 00:16:41;;;;;;;11.80;8.00;;;;;;;17.06;76.77;97759.73;106930;1263;22623;-79
2023/08/25 00:19:09;;;;;;;10.80;7.80;;;;;;;17.08;77.21;97758.40;106883;1268;22639;-79
2023/08/25 00:21:37;;;;;;;11.70;8.00;;;;;;;17.14;77.48;97763.87;106829;1278;24248;-79
2023/08/25 00:24:05;;;;;;;11.20;7.80;;;;;;;17.19;78.11;97768.92;106729;1267;24072;-79
2023/08/25 00:26:34;;;;;;;11.30;8.20;;;;;;;17.20;77.69;97769.73;106887;1265;22774;-79
2023/08/25 00:29:02;;;;;;;11.30;7.90;;;;;;;17.22;78.07;97769.48;106696;1279;350204;-79
2023/08/25 00:31:30;;;;;;;12.90;8.10;;;;;;;17.25;78.34;97771.28;106972;1266;23583;-79
2023/08/25 00:34:02;;;;;;;10.50;7.30;;;;;;;17.27;78.43;97770.55;106880;1259;24186;-79
2023/08/25 00:36:30;;;;;;;14.90;8.00;;;;;;;17.31;78.40;97768.17;106996;1268;25468;-79
2023/08/25 00:38:58;;;;;;;10.20;7.40;;;;;;;17.36;78.47;97760.29;106982;1263;22574;-79
2023/08/25 00:41:26;;;;;;;8.70;7.10;;;;;;;17.39;78.49;97751.19;107215;1272;22585;-77
2023/08/25 00:43:54;;;;;;;9.90;7.70;;;;;;;17.39;78.36;97748.88;107242;1256;24213;-77
2023/08/25 00:46:22;;;;;;;11.70;8.60;;;;;;;17.39;78.37;97741.23;106952;1278;22637;-78
2023/08/25 00:48:50;;;;;;;9.50;7.40;;;;;;;17.38;78.13;97736.02;106917;1270;22745;-78
2023/08/25 00:51:19;;;;;;;9.30;7.20;;;;;;;17.36;78.26;97735.41;106914;1271;22650;-79
2023/08/25 00:53:48;;;;;;;9.40;7.00;;;;;;;17.41;78.54;97739.88;106933;1263;22546;-78
2023/08/25 00:56:18;;;;;;;9.30;7.10;;;;;;;17.46;78.20;97742.92;107047;1263;24381;-78
2023/08/25 00:58:49;;;;;;;9.00;6.70;;;;;;;17.52;78.57;97739.73;106967;1275;23009;-78
2023/08/25 01:01:18;;;;;;;11.10;7.10;;;;;;;17.51;78.49;97735.97;106953;1278;22551;-78
2023/08/25 01:03:48;;;;;;;9.40;6.80;;;;;;;17.50;78.61;97735.71;106990;1278;22596;-79
2023/08/25 01:06:16;;;;;;;9.40;7.00;;;;;;;17.47;78.57;97734.31;107138;1277;22552;-79
2023/08/25 01:08:45;;;;;;;9.70;6.70;;;;;;;17.46;78.27;97728.74;107000;1278;22529;-80
2023/08/25 01:11:28;;;;;;;9.80;6.90;;;;;;;17.43;78.40;97721.60;106953;1279;22596;-77
2023/08/25 01:14:22;;;;;;;10.80;6.70;;;;;;;17.38;78.45;97723.17;106848;1278;25314;-78
2023/08/25 01:16:55;;;;;;;11.60;7.30;;;;;;;17.34;78.59;97721.41;106867;1278;22643;-78
2023/08/25 01:19:53;;;;;;;10.10;7.20;;;;;;;17.32;78.74;97720.12;106962;1278;22574;-78
2023/08/25 01:22:33;;;;;;;11.20;7.30;;;;;;;17.30;78.90;97717.65;106920;1278;22691;-77
2023/08/25 01:25:17;;;;;;;13.10;7.80;;;;;;;17.28;78.86;97717.20;107085;1269;22669;-79
2023/08/25 01:27:46;;;;;;;12.90;7.40;;;;;;;17.27;78.85;97717.12;106963;1278;22620;-79
2023/08/25 01:30:14;;;;;;;10.30;7.20;;;;;;;17.24;78.63;97717.64;106976;1271;22760;-78
2023/08/25 01:32:42;;;;;;;12.00;7.70;;;;;;;17.22;78.67;97709.25;106948;1278;22606;-78
2023/08/25 01:35:15;;;;;;;10.90;7.50;;;;;;;17.19;79.29;97704.21;106866;1278;22649;-78
2023/08/25 01:37:50;;;;;;;9.30;7.30;;;;;;;17.15;79.12;97706.36;106932;1269;22532;-78
2023/08/25 01:40:33;;;;;;;10.00;7.40;;;;;;;17.14;79.44;97705.64;107042;1275;22534;-78
2023/08/25 01:43:06;;;;;;;8.10;7.10;;;;;;;17.14;79.46;97705.09;107009;1279;25489;-78
2023/08/25 01:45:34;;;;;;;9.70;8.00;;;;;;;17.15;79.42;97704.17;106978;1279;25533;-78
2023/08/25 01:48:06;;;;;;;7.50;6.60;;;;;;;17.17;79.43;97709.98;106972;1263;24429;-78
2023/08/25 01:50:35;;;;;;;9.50;7.10;;;;;;;17.19;79.28;97711.28;107005;1275;23360;-78
2023/08/25 01:53:03;;;;;;;10.60;7.40;;;;;;;17.23;79.34;97707.98;106929;1269;23446;-79
2023/08/25 01:55:32;;;;;;;11.20;7.60;;;;;;;17.29;79.41;97702.45;106895;1265;26618;-78
2023/08/25 01:58:02;;;;;;;10.30;7.30;;;;;;;17.33;79.38;97699.60;106896;1278;22683;-78
2023/08/25 02:00:30;;;;;;;8.80;7.30;;;;;;;17.36;79.41;97700.55;106952;1279;22627;-78
2023/08/25 02:02:59;;;;;;;15.30;7.70;;;;;;;17.38;79.55;97702.23;106966;1264;22576;-78
2023/08/25 02:05:28;;;;;;;10.00;8.40;;;;;;;17.39;79.49;97698.77;106954;1275;23471;-78
2023/08/25 02:07:56;;;;;;;9.40;7.70;;;;;;;17.43;79.64;97700.01;106941;1268;24056;-78
2023/08/25 02:10:24;;;;;;;10.40;8.00;;;;;;;17.47;79.41;97693.14;106855;1278;22669;-78
2023/08/25 02:12:52;;;;;;;8.50;6.90;;;;;;;17.50;79.57;97684.82;106943;1256;22647;-78
2023/08/25 02:15:20;;;;;;;13.60;9.20;;;;;;;17.55;79.67;97672.80;106847;1278;22534;-78
2023/08/25 02:17:48;;;;;;;11.40;7.80;;;;;;;17.59;79.86;97664.26;106846;1266;25399;-78
2023/08/25 02:20:16;;;;;;;8.70;7.80;;;;;;;17.63;79.71;97658.67;106901;1265;25759;-78
2023/08/25 02:22:44;;;;;;;8.40;7.40;;;;;;;17.69;79.91;97661.08;106911;1279;22534;-78
2023/08/25 02:25:12;;;;;;;11.80;7.90;;;;;;;17.75;79.85;97665.42;106863;1270;24265;-78
2023/08/25 02:27:40;;;;;;;8.90;7.20;;;;;;;17.80;79.65;97661.70;106930;1278;25349;-79
2023/08/25 02:30:09;;;;;;;11.10;7.10;;;;;;;17.87;79.64;97656.64;106811;1278;22580;-79
2023/08/25 02:32:38;;;;;;;8.60;7.00;;;;;;;17.97;79.88;97657.89;106981;1278;24231;-77
2023/08/25 02:35:06;;;;;;;9.90;6.90;;;;;;;18.07;79.90;97666.55;107830;1279;23423;-79
2023/08/25 02:37:34;;;;;;;9.70;7.90;;;;;;;18.15;79.85;97666.66;106888;1273;25349;-79
2023/08/25 02:40:04;;;;;;;8.90;6.90;;;;;;;18.19;79.58;97672.29;106679;1278;25188;-80
2023/08/25 02:42:32;;;;;;;8.60;6.60;;;;;;;18.20;79.51;97673.31;106896;1269;24252;-78
2023/08/25 02:45:00;;;;;;;10.20;7.60;;;;;;;18.20;79.37;97669.10;106899;1269;22537;-78
2023/08/25 02:47:29;;;;;;;8.40;6.80;;;;;;;18.19;79.23;97665.89;106808;1263;22625;-78
2023/08/25 02:49:57;;;;;;;9.30;7.40;;;;;;;18.13;79.04;97664.21;106824;1276;22644;-79
2023/08/25 02:52:25;;;;;;;8.90;7.30;;;;;;;18.11;79.10;97666.02;106829;1263;22542;-79
2023/08/25 02:54:52;;;;;;;11.50;7.00;;;;;;;18.12;79.04;97666.44;106915;1257;22647;-79
2023/08/25 02:57:20;;;;;;;9.10;7.10;;;;;;;18.16;79.05;97669.25;106973;1269;25341;-79
2023/08/25 02:59:48;;;;;;;10.00;7.70;;;;;;;18.15;78.87;97671.41;106965;1276;22535;-78
2023/08/25 03:02:16;;;;;;;9.10;7.50;;;;;;;18.11;78.82;97670.85;106868;1267;24206;-78
2023/08/25 03:04:44;;;;;;;9.60;7.90;;;;;;;18.05;78.77;97668.61;106850;1265;25338;-78
2023/08/25 03:07:12;;;;;;;10.10;8.00;;;;;;;18.00;78.87;97669.73;106932;1278;22527;-78
2023/08/25 03:09:40;;;;;;;8.90;7.40;;;;;;;17.91;78.61;97669.38;106816;1278;22862;-79
2023/08/25 03:12:08;;;;;;;9.00;7.80;;;;;;;17.83;78.63;97665.89;106927;1266;22619;-78
2023/08/25 03:14:36;;;;;;;9.10;7.80;;;;;;;17.75;78.72;97666.45;106838;1272;22648;-79
2023/08/25 03:17:04;;;;;;;9.50;7.80;;;;;;;17.68;78.78;97667.29;106866;1278;24256;-79
2023/08/25 03:19:32;;;;;;;9.80;7.40;;;;;;;17.63;78.83;97668.39;106793;1264;23490;-79
2023/08/25 03:22:00;;;;;;;9.20;7.40;;;;;;;17.55;79.09;97671.26;106837;1278;22657;-79
2023/08/25 03:24:32;;;;;;;11.00;6.80;;;;;;;17.47;79.05;97671.80;106912;1265;22541;-79
2023/08/25 03:27:00;;;;;;;10.00;8.00;;;;;;;17.35;79.15;97668.52;106841;1269;24349;-79
2023/08/25 03:29:28;;;;;;;10.10;7.60;;;;;;;17.22;79.36;97662.83;106829;1275;22647;-79
2023/08/25 03:31:56;;;;;;;11.80;7.80;;;;;;;17.13;79.66;97661.42;106954;1278;24253;-79
2023/08/25 03:34:24;;;;;;;9.30;8.30;;;;;;;17.08;79.69;97666.95;106907;1278;24338;-79
2023/08/25 03:36:52;;;;;;;12.30;8.30;;;;;;;17.03;80.15;97668.30;106922;1279;24185;-79
2023/08/25 03:39:20;;;;;;;9.60;8.50;;;;;;;16.94;80.32;97670.53;106771;1279;25275;-79
2023/08/25 03:41:48;;;;;;;10.50;7.90;;;;;;;16.84;80.72;97668.31;106998;1278;25389;-79
2023/08/25 03:44:16;;;;;;;9.90;7.70;;;;;;;16.75;80.58;97676.48;106956;1270;22542;-79
2023/08/25 03:46:45;;;;;;;8.80;7.50;;;;;;;16.68;80.78;97672.80;106946;1278;25348;-79
2023/08/25 03:49:13;;;;;;;8.70;7.10;;;;;;;16.65;81.00;97668.20;106836;1278;22696;-79
2023/08/25 03:51:42;;;;;;;9.90;8.20;;;;;;;16.67;81.26;97666.23;106924;1256;22581;-79
2023/08/25 03:54:11;;;;;;;10.50;7.60;;;;;;;16.71;81.47;97668.76;106894;1264;24208;-78
2023/08/25 03:56:39;;;;;;;11.60;8.00;;;;;;;16.69;81.40;97672.98;106737;1275;22647;-79
2023/08/25 03:59:07;;;;;;;12.20;8.80;;;;;;;16.66;81.53;97675.03;106941;1278;22665;-79
2023/08/25 04:01:35;;;;;;;11.70;9.00;;;;;;;16.64;81.75;97671.96;106952;1267;25455;-78
2023/08/25 04:04:03;;;;;;;10.10;8.00;;;;;;;16.63;81.84;97655.05;106894;1269;23766;-79
2023/08/25 04:06:31;;;;;;;9.20;7.70;;;;;;;16.64;81.87;97650.35;106874;1278;25341;-79
2023/08/25 04:08:59;;;;;;;13.70;7.60;;;;;;;16.69;82.16;97644.52;106901;1278;24255;-79
2023/08/25 04:11:27;;;;;;;8.50;6.80;;;;;;;16.74;82.23;97639.77;106836;1264;24252;-79
2023/08/25 04:13:56;;;;;;;9.00;7.00;;;;;;;16.79;82.60;97640.27;106884;1278;24241;-79
2023/08/25 04:16:24;;;;;;;9.80;7.50;;;;;;;16.79;83.27;97634.50;106870;1272;22600;-79
2023/08/25 04:18:52;;;;;;;9.90;7.40;;;;;;;16.78;83.10;97626.38;106820;1278;25375;-79
2023/08/25 04:21:20;;;;;;;9.40;7.40;;;;;;;16.80;83.36;97624.80;106944;1279;22551;-80
2023/08/25 04:23:48;;;;;;;10.30;7.70;;;;;;;16.85;83.22;97631.63;106957;1266;22994;-79
2023/08/25 04:26:16;;;;;;;8.80;7.90;;;;;;;16.93;83.40;97634.20;107050;1278;22588;-79
2023/08/25 04:28:44;;;;;;;8.60;6.90;;;;;;;17.06;83.46;97640.61;107021;1278;22562;-78
2023/08/25 04:31:13;;;;;;;10.20;7.10;;;;;;;17.20;83.56;97634.07;106983;1278;24238;-78
2023/08/25 04:33:46;;;;;;;9.70;7.60;;;;;;;17.35;83.45;97635.95;106994;1264;23444;-79
2023/08/25 04:36:14;;;;;;;8.90;7.70;;;;;;;17.44;83.55;97629.15;106969;1279;22539;-84
2023/08/25 04:38:43;;;;;;;6.60;5.00;;;;;;;17.63;85.56;97624.44;107084;1275;22612;-80
2023/08/25 04:41:11;;;;;;;6.40;4.90;;;;;;;18.04;86.27;97620.84;106972;1278;24240;-81
2023/08/25 04:43:40;;;;;;;8.30;6.10;;;;;;;18.43;85.17;97624.58;106933;1273;22594;-80
2023/08/25 04:46:08;;;;;;;9.10;6.70;;;;;;;18.75;84.03;97633.30;106877;1278;22644;-82
2023/08/25 04:48:36;;;;;;;12.70;6.90;;;;;;;18.83;83.26;97637.77;106913;1265;22535;-82
2023/08/25 04:51:08;;;;;;;11.00;8.40;;;;;;;18.96;83.57;97634.58;106985;1276;22538;-81
2023/08/25 04:53:36;;;;;;;8.00;5.90;;;;;;;19.16;83.30;97633.73;106885;1263;22799;-81
2023/08/25 04:56:04;;;;;;;8.10;6.20;;;;;;;19.48;83.35;97626.02;106934;1269;22537;-81
2023/08/25 04:58:32;;;;;;;7.00;5.60;;;;;;;19.78;82.55;97613.05;107048;1264;22643;-82
2023/08/25 05:01:00;;;;;;;9.40;6.70;;;;;;;20.09;81.77;97606.10;107058;1278;22542;-82
2023/08/25 05:03:29;;;;;;;10.70;6.90;;;;;;;20.28;80.86;97605.36;106972;1273;25551;-82
2023/08/25 05:05:57;;;;;;;7.60;6.40;;;;;;;20.34;80.60;97603.02;107022;1278;25338;-81
2023/08/25 05:08:26;;;;;;;8.00;5.40;;;;;;;20.42;80.51;97601.33;107001;1269;22580;-81
2023/08/25 05:10:54;;;;;;;14.10;7.30;;;;;;;20.53;80.55;97593.20;106884;1279;22552;-82
2023/08/25 05:13:23;;;;;;;7.30;6.30;;;;;;;20.58;80.45;97588.89;106842;1274;22577;-82
2023/08/25 05:15:51;;;;;;;8.00;5.90;;;;;;;20.58;80.25;97586.16;106872;1278;24213;-83
2023/08/25 05:18:33;;;;;;;9.00;6.70;;;;;;;20.65;80.09;97581.79;106885;1266;22625;-83
2023/08/25 05:21:01;;;;;;;7.30;6.40;;;;;;;20.67;79.42;97578.20;106894;1279;22551;-82
2023/08/25 05:23:32;;;;;;;10.10;6.40;;;;;;;20.71;79.31;97582.55;106893;1267;24040;-82
2023/08/25 05:26:00;;;;;;;9.00;6.10;;;;;;;20.76;79.07;97583.95;106800;1267;22543;-83
2023/08/25 05:28:28;;;;;;;8.00;6.00;;;;;;;20.84;78.84;97581.38;106811;1279;22566;-81
2023/08/25 05:30:58;;;;;;;7.70;5.00;;;;;;;20.91;78.41;97581.15;106877;1264;23078;-81
2023/08/25 05:33:46;;;;;;;9.10;6.00;;;;;;;20.95;78.22;97568.66;106887;1279;25641;-82
2023/08/25 05:36:33;;;;;;;7.40;6.30;;;;;;;21.04;77.85;97567.83;107303;1278;22599;-83
2023/08/25 05:39:02;;;;;;;10.80;6.00;;;;;;;21.16;77.30;97564.42;107197;1279;22645;-83
2023/08/25 05:41:30;;;;;;;8.60;6.30;;;;;;;21.26;77.00;97563.58;106956;1279;22520;-84
2023/08/25 05:43:58;;;;;;;10.90;7.70;;;;;;;21.27;76.88;97562.48;107358;1273;22575;-83
2023/08/25 05:46:31;;;;;;;8.70;6.00;;;;;;;21.19;76.26;97556.86;107874;1276;25396;-85
2023/08/25 05:48:59;;;;;;;10.00;6.80;;;;;;;21.17;76.72;97557.30;107059;1273;22646;-84
2023/08/25 05:51:27;;;;;;;8.70;6.10;;;;;;;21.19;76.13;97560.92;107102;1278;22543;-83
2023/08/25 05:53:56;;;;;;;8.60;5.30;;;;;;;21.18;76.06;97558.41;107008;1277;22651;-83
2023/08/25 05:56:24;;;;;;;10.50;6.90;;;;;;;21.19;75.90;97560.20;106959;1276;22629;-83
2023/08/25 05:58:54;;;;;;;9.10;6.50;;;;;;;21.16;75.34;97565.98;107183;1272;22683;-81
2023/08/25 06:01:22;;;;;;;9.80;6.00;;;;;;;21.21;75.47;97564.55;107131;1278;25788;-83
2023/08/25 06:03:50;;;;;;;9.00;5.70;;;;;;;21.37;75.09;97564.08;107271;1273;24655;-84
2023/08/25 06:06:18;;;;;;;9.10;4.90;;;;;;;21.49;75.14;97559.48;107417;1278;23011;-82
2023/08/25 06:08:46;;;;;;;8.70;6.50;;;;;;;21.62;74.72;97556.23;107135;1278;25258;-83
2023/08/25 06:11:14;;;;;;;9.00;5.60;;;;;;;21.61;74.33;97561.70;107048;1279;25413;-85
2023/08/25 06:13:42;;;;;;;9.60;6.30;;;;;;;21.62;74.37;97558.11;107085;1274;24376;-85
2023/08/25 06:16:10;;;;;;;10.00;6.10;;;;;;;21.70;74.39;97555.36;107154;1278;22936;-83
2023/08/25 06:18:38;;;;;;;7.90;6.10;;;;;;;21.69;73.83;97553.23;107218;1278;22543;-82
2023/08/25 06:21:06;;;;;;;7.50;5.70;;;;;;;21.67;73.59;97555.27;108142;1277;25364;-82
2023/08/25 06:23:34;;;;;;;9.90;5.80;;;;;;;21.71;74.00;97552.39;107228;1278;24234;-81
2023/08/25 06:26:02;;;;;;;10.30;5.80;;;;;;;21.84;73.88;97547.23;107179;1270;22525;-80
2023/08/25 06:28:31;;;;;;;11.70;6.50;;;;;;;21.99;73.71;97539.55;107581;1278;24295;-83
2023/08/25 06:30:59;;;;;;;8.30;5.80;;;;;;;22.09;73.34;97531.32;107399;1273;22683;-80
2023/08/25 06:33:31;;;;;;;13.20;6.10;;;;;;;22.18;72.84;97526.05;107057;1276;22650;-80
2023/08/25 06:35:59;;;;;;;10.50;6.20;;;;;;;22.26;72.47;97525.08;107137;1277;25410;-79
2023/08/25 06:38:27;;;;;;;14.50;6.00;;;;;;;22.30;72.05;97532.79;107099;1278;24041;-78
2023/08/25 06:40:57;;;;;;;12.90;5.60;;;;;;;22.32;72.33;97535.54;106787;1270;22998;-80
2023/08/25 06:43:27;;;;;;;10.90;5.40;;;;;;;22.37;71.97;97532.81;107064;1278;22546;-81
2023/08/25 06:45:55;;;;;;;7.80;5.90;;;;;;;22.45;71.87;97525.71;107352;1267;23449;-80
2023/08/25 06:48:23;;;;;;;8.70;6.20;;;;;;;22.49;71.45;97522.19;106697;1264;23625;-78
2023/08/25 06:50:51;;;;;;;8.20;5.80;;;;;;;22.46;71.28;97517.88;107083;1278;22622;-79
2023/08/25 06:53:19;;;;;;;10.00;6.30;;;;;;;22.47;71.22;97513.17;106697;1264;22778;-80
2023/08/25 06:55:48;;;;;;;11.70;7.10;;;;;;;22.50;70.89;97517.27;106640;1278;24226;-80
2023/08/25 06:58:16;;;;;;;8.90;6.20;;;;;;;22.51;70.81;97526.21;107026;1257;22633;-80
2023/08/25 07:00:44;;;;;;;10.30;6.40;;;;;;;22.57;70.98;97532.98;107211;1272;24343;-79
2023/08/25 07:03:13;;;;;;;10.00;6.60;;;;;;;22.71;70.77;97534.44;106746;1278;25505;-78
2023/08/25 07:05:41;;;;;;;11.70;6.70;;;;;;;22.77;70.73;97535.46;107184;1278;25291;-78
2023/08/25 07:08:09;;;;;;;12.40;6.60;;;;;;;22.82;70.52;97532.82;107180;1278;24258;-78
2023/08/25 07:10:37;;;;;;;10.70;7.10;;;;;;;22.84;70.33;97537.06;107154;1278;23265;-77
2023/08/25 07:13:05;;;;;;;10.70;6.70;;;;;;;22.85;70.12;97548.37;107423;1277;22587;-77
2023/08/25 07:15:34;;;;;;;15.40;6.60;;;;;;;22.80;69.89;97552.83;106991;1278;22611;-78
2023/08/25 07:18:03;;;;;;;9.40;6.50;;;;;;;22.73;69.94;97548.17;107009;1279;24340;-79
2023/08/25 07:20:31;;;;;;;8.90;6.70;;;;;;;22.70;69.78;97545.98;106987;1277;25590;-80
2023/08/25 07:22:59;;;;;;;13.80;7.20;;;;;;;22.65;69.88;97540.93;107304;1277;22770;-79
2023/08/25 07:25:27;;;;;;;13.30;6.90;;;;;;;22.64;69.70;97540.84;107203;1272;22547;-79
2023/08/25 07:27:55;;;;;;;9.50;6.30;;;;;;;22.63;69.70;97537.79;107060;1279;22629;-78
2023/08/25 07:30:23;;;;;;;8.50;6.90;;;;;;;22.64;69.76;97542.65;106989;1278;24191;-77
2023/08/25 07:32:51;;;;;;;10.10;6.90;;;;;;;22.64;69.63;97543.20;106953;1278;24372;-80
2023/08/25 07:35:19;;;;;;;9.90;7.10;;;;;;;22.61;69.61;97542.80;107038;1278;22620;-78
2023/08/25 07:37:47;;;;;;;9.30;5.80;;;;;;;22.60;69.72;97545.15;107123;1278;22907;-82
2023/08/25 07:40:17;;;;;;;9.20;5.60;;;;;;;22.64;69.85;97545.40;107076;1278;25275;-83
2023/08/25 07:42:45;;;;;;;8.70;5.50;;;;;;;22.72;69.87;97554.61;107121;1278;22961;-82
2023/08/25 07:45:13;;;;;;;9.90;5.40;;;;;;;22.79;69.97;97561.07;107064;1274;22573;-81
2023/08/25 07:47:42;;;;;;;9.30;6.50;;;;;;;22.86;69.67;97557.78;107145;1278;22623;-82
2023/08/25 07:50:10;;;;;;;16.50;8.00;;;;;;;22.96;69.70;97553.67;107257;1278;22540;-85
2023/08/25 07:52:38;;;;;;;10.50;7.40;;;;;;;23.08;69.36;97551.67;107263;1278;23298;-85
2023/08/25 07:55:07;;;;;;;16.80;7.50;;;;;;;23.13;69.32;97547.75;107249;1278;25300;-87
2023/08/25 07:57:35;;;;;;;12.40;6.50;;;;;;;23.22;69.30;97554.35;107186;1278;22555;-88
2023/08/25 08:00:06;;;;;;;11.20;6.80;;;;;;;23.30;69.20;97550.52;107194;1256;22541;-87
2023/08/25 08:02:34;;;;;;;10.90;6.60;;;;;;;23.36;69.04;97548.40;107098;1278;22671;-89
2023/08/25 08:05:02;;;;;;;8.60;6.00;;;;;;;23.46;69.16;97545.50;107144;1278;24250;-88
2023/08/25 08:07:31;;;;;;;11.00;6.60;;;;;;;23.60;68.82;97549.98;107150;1278;22548;-84
2023/08/25 08:09:59;;;;;;;10.60;6.70;;;;;;;23.70;68.78;97555.25;107088;1274;22586;-83
2023/08/25 08:12:30;;;;;;;12.50;7.90;;;;;;;23.85;68.84;97553.52;107574;1279;22568;-83
2023/08/25 08:14:58;;;;;;;10.00;6.80;;;;;;;24.01;68.92;97552.64;109530;1279;25332;-83
2023/08/25 08:17:26;;;;;;;15.20;7.00;;;;;;;24.18;68.59;97544.18;107177;1278;22551;-84
2023/08/25 08:19:54;;;;;;;10.90;7.40;;;;;;;24.38;68.22;97550.59;107176;1272;22569;-84
2023/08/25 08:22:22;;;;;;;12.90;7.80;;;;;;;24.48;67.96;97558.67;107174;1278;22607;-82
2023/08/25 08:24:50;;;;;;;20.60;6.90;;;;;;;24.61;67.86;97556.88;107265;1278;24256;-83
2023/08/25 08:27:19;;;;;;;9.70;6.60;;;;;;;24.71;67.57;97557.87;107131;1273;22549;-84
2023/08/25 08:29:48;;;;;;;13.30;6.70;;;;;;;24.80;67.52;97555.23;107185;1278;22638;-86
2023/08/25 08:32:16;;;;;;;10.30;6.90;;;;;;;24.88;67.74;97557.23;107163;1278;24219;-88
2023/08/25 08:34:44;;;;;;;11.30;6.50;;;;;;;24.93;67.44;97550.83;107141;1273;22657;-84
2023/08/25 08:37:12;;;;;;;11.50;6.40;;;;;;;25.07;67.71;97550.59;106630;1272;22638;-83
2023/08/25 08:39:40;;;;;;;11.40;6.30;;;;;;;25.21;67.01;97551.40;106847;1278;22543;-85
2023/08/25 08:42:12;;;;;;;11.90;6.60;;;;;;;25.24;66.73;97551.92;107260;1279;22557;-87
2023/08/25 08:44:48;;;;;;;9.40;6.40;;;;;;;25.36;66.65;97547.74;107755;1279;22709;-88
2023/08/25 08:47:17;;;;;;;8.00;6.10;;;;;;;25.47;66.45;97548.45;108540;1279;22568;-90
2023/08/25 08:49:45;;;;;;;8.20;5.90;;;;;;;25.59;66.64;97543.70;107516;1277;22543;-78
2023/08/25 08:52:14;;;;;;;10.50;7.00;;;;;;;25.72;66.43;97546.10;106617;1279;22685;-78
2023/08/25 08:54:43;;;;;;;11.90;6.80;;;;;;;25.84;65.52;97547.06;107152;1272;22533;-77
2023/08/25 08:57:14;;;;;;;15.20;7.20;;;;;;;25.93;65.51;97548.00;107327;1278;22554;-78
2023/08/25 08:59:42;;;;;;;10.80;7.90;;;;;;;26.04;65.73;97551.84;107254;1278;25409;-77
2023/08/25 09:02:13;;;;;;;15.10;6.60;;;;;;;26.20;65.16;97552.37;107217;1256;24271;-79
2023/08/25 09:04:42;;;;;;;11.70;6.80;;;;;;;26.25;64.38;97552.80;107115;1279;24248;-78
2023/08/25 09:07:12;;;;;;;11.70;6.90;;;;;;;26.28;63.37;97555.83;107234;1278;25488;-78
2023/08/25 09:09:41;;;;;;;16.20;7.00;;;;;;;26.27;62.83;97554.89;107192;1265;24346;-78
2023/08/25 09:12:09;;;;;;;15.90;6.60;;;;;;;26.27;62.44;97549.22;107309;1272;22536;-77
2023/08/25 09:14:37;;;;;;;13.50;6.50;;;;;;;26.40;62.56;97553.11;107300;1272;22577;-79
2023/08/25 09:17:06;;;;;;;12.20;7.30;;;;;;;26.55;61.26;97556.90;107215;1278;22624;-79
2023/08/25 09:19:34;;;;;;;13.90;6.80;;;;;;;26.60;60.41;97551.63;107035;1278;24822;-77
2023/08/25 09:22:02;;;;;;;9.00;6.60;;;;;;;26.66;60.41;97550.75;106622;1273;23876;-76
2023/08/25 09:24:33;;;;;;;8.80;6.70;;;;;;;26.78;60.65;97551.25;106664;1279;25332;-77
2023/08/25 09:27:01;;;;;;;9.80;6.50;;;;;;;26.84;59.55;97558.12;106577;1278;22745;-76
2023/08/25 09:29:42;;;;;;;12.90;6.40;;;;;;;26.82;59.62;97558.77;106646;1278;24417;-76
2023/08/25 09:32:23;;;;;;;12.50;6.80;;;;;;;26.81;59.68;97552.23;106649;1279;25728;-77
2023/08/25 09:34:52;;;;;;;13.70;6.50;;;;;;;26.85;59.16;97548.78;107172;1272;22647;-77
2023/08/25 09:37:20;;;;;;;13.80;6.40;;;;;;;26.89;59.75;97538.92;106587;1279;22636;-77
2023/08/25 09:39:48;;;;;;;12.00;6.80;;;;;;;27.02;59.30;97541.66;107066;1279;23639;-77
2023/08/25 09:42:17;;;;;;;12.50;7.20;;;;;;;27.12;59.04;97537.02;106748;1276;22775;-79
2023/08/25 09:44:45;;;;;;;11.00;7.60;;;;;;;27.17;57.92;97537.92;107120;1274;23014;-77
2023/08/25 09:47:14;;;;;;;10.30;6.80;;;;;;;27.17;58.64;97536.73;106752;1259;22690;-77
2023/08/25 09:49:42;;;;;;;12.90;6.90;;;;;;;27.31;58.47;97529.33;107131;1259;22541;-75
2023/08/25 09:52:14;;;;;;;11.40;6.70;;;;;;;27.49;58.64;97531.50;106626;1278;22908;-77
2023/08/25 09:54:42;;;;;;;9.10;6.10;;;;;;;27.63;57.75;97530.02;106806;1272;22660;-76
2023/08/25 09:57:10;;;;;;;13.10;6.60;;;;;;;27.75;57.74;97527.42;106719;1278;25645;-76
2023/08/25 09:59:38;;;;;;;12.90;6.60;;;;;;;27.84;57.09;97523.98;106741;1278;24416;-76
2023/08/25 10:02:10;;;;;;;14.80;6.60;;;;;;;27.91;56.99;97522.76;106718;1278;24040;-77
2023/08/25 10:04:42;;;;;;;10.20;6.90;;;;;;;27.97;56.26;97521.91;106656;1278;22552;-77
2023/08/25 10:07:11;;;;;;;13.30;7.00;;;;;;;28.03;56.65;97520.77;107040;1278;24244;-77
2023/08/25 10:09:39;;;;;;;11.80;6.50;;;;;;;28.12;56.20;97512.86;106717;1279;22639;-77
2023/08/25 10:12:10;;;;;;;11.10;7.40;;;;;;;28.21;56.22;97510.39;106567;1257;24271;-79
2023/08/25 10:14:41;;;;;;;13.10;6.90;;;;;;;28.25;55.62;97510.70;107159;1278;22547;-78
2023/08/25 10:17:14;;;;;;;16.30;6.90;;;;;;;28.26;55.81;97511.71;107178;1275;23257;-75
2023/08/25 10:19:43;;;;;;;8.90;6.50;;;;;;;28.23;55.53;97506.08;106769;1278;26814;-77
2023/08/25 10:22:13;;;;;;;13.00;7.10;;;;;;;28.32;56.02;97501.41;106948;1278;22678;-77
2023/08/25 10:24:42;;;;;;;12.00;6.90;;;;;;;28.47;55.74;97500.00;107077;1278;25342;-77
2023/08/25 10:27:10;;;;;;;8.40;6.50;;;;;;;28.58;55.92;97498.59;107000;1278;22590;-75
2023/08/25 10:29:39;;;;;;;11.30;7.40;;;;;;;28.66;55.06;97499.91;106831;1278;22937;-77
2023/08/25 10:32:09;;;;;;;15.40;7.40;;;;;;;28.51;55.94;97494.77;107259;1272;23915;-77
2023/08/25 10:34:42;;;;;;;14.20;7.00;;;;;;;28.72;56.26;97496.16;107225;1278;26625;-77
2023/08/25 10:37:23;;;;;;;11.80;7.60;;;;;;;28.88;55.21;97501.27;106679;1272;22527;-76
2023/08/25 10:39:51;;;;;;;13.00;8.30;;;;;;;28.81;55.15;97499.77;107230;1278;25354;-76
2023/08/25 10:42:23;;;;;;;16.20;8.10;;;;;;;28.81;55.34;97506.26;106740;1275;25259;-76
2023/08/25 10:45:06;;;;;;;12.00;7.70;;;;;;;28.85;55.41;97509.17;106688;1278;22521;-76
2023/08/25 10:47:41;;;;;;;12.20;7.70;;;;;;;28.72;55.19;97513.55;106732;1264;25341;-76
2023/08/25 10:50:09;;;;;;;12.30;7.80;;;;;;;28.47;55.45;97519.15;106813;1277;25322;-76
2023/08/25 10:52:48;;;;;;;16.00;7.60;;;;;;;28.34;56.02;97520.27;106744;1278;24332;-77
2023/08/25 10:55:25;;;;;;;11.90;8.00;;;;;;;28.40;56.02;97523.17;106728;1274;22568;-76
2023/08/25 10:58:01;;;;;;;13.60;7.50;;;;;;;28.48;55.93;97519.23;106706;1278;22543;-78
2023/08/25 11:00:34;;;;;;;15.20;8.20;;;;;;;28.64;55.91;97514.70;107131;1278;22534;-78
2023/08/25 11:03:03;;;;;;;18.80;7.50;;;;;;;28.85;56.13;97515.19;107093;1278;22521;-78
2023/08/25 11:05:35;;;;;;;13.20;7.80;;;;;;;29.10;56.02;97512.98;107308;1278;22635;-77
2023/08/25 11:08:05;;;;;;;11.70;7.70;;;;;;;29.35;55.88;97504.94;106610;1279;22545;-77
2023/08/25 11:10:35;;;;;;;12.40;7.80;;;;;;;29.49;55.05;97499.61;106616;1279;22829;-77
2023/08/25 11:13:06;;;;;;;10.60;7.10;;;;;;;29.57;55.32;97502.02;106611;1279;22618;-77
2023/08/25 11:15:38;;;;;;;10.50;7.10;;;;;;;29.59;54.65;97499.05;106550;1279;22543;-76
2023/08/25 11:18:08;;;;;;;11.60;7.00;;;;;;;29.59;54.50;97504.27;106730;1278;22554;-76
2023/08/25 11:20:44;;;;;;;12.30;8.00;;;;;;;29.73;54.99;97496.48;106549;1278;22524;-76
2023/08/25 11:23:12;;;;;;;16.10;7.80;;;;;;;29.83;53.95;97504.40;106618;1278;22654;-76
2023/08/25 11:25:47;;;;;;;11.60;7.80;;;;;;;29.81;54.05;97502.70;106636;1278;26507;-75
2023/08/25 11:28:16;;;;;;;13.80;7.40;;;;;;;29.88;53.48;97506.50;106597;1271;23130;-77
2023/08/25 11:30:45;;;;;;;13.10;7.30;;;;;;;29.91;53.52;97502.20;106596;1256;22568;-76